sensor_id;sensor_type;location;lat;lon;timestamp;P1;durP1;ratioP1;P2;durP2;ratioP2
58470;SDS011;44258;51.288;12.068;2023-11-21T00:00:06;9.90;;;3.47;;
58470;SDS011;44258;51.288;12.068;2023-11-21T00:02:37;8.38;;;3.13;;
58470;SDS011;44258;51.288;12.068;2023-11-21T00:05:06;7.93;;;3.22;;
58470;SDS011;44258;51.288;12.068;2023-11-21T00:07:35;7.05;;;3.00;;
58470;SDS011;44258;51.288;12.068;2023-11-21T00:10:02;7.43;;;2.72;;
58470;SDS011;44258;51.288;12.068;2023-11-21T00:12:30;6.40;;;2.70;;
58470;SDS011;44258;51.288;12.068;2023-11-21T00:14:59;6.03;;;2.40;;
58470;SDS011;44258;51.288;12.068;2023-11-21T00:17:30;9.20;;;2.35;;
58470;SDS011;44258;51.288;12.068;2023-11-21T00:19:57;6.88;;;2.10;;
58470;SDS011;44258;51.288;12.068;2023-11-21T00:22:24;9.18;;;2.60;;
58470;SDS011;44258;51.288;12.068;2023-11-21T00:24:50;6.72;;;2.25;;
58470;SDS011;44258;51.288;12.068;2023-11-21T00:27:18;4.57;;;2.17;;
58470;SDS011;44258;51.288;12.068;2023-11-21T00:29:46;5.28;;;2.00;;
58470;SDS011;44258;51.288;12.068;2023-11-21T00:32:15;4.85;;;1.70;;
58470;SDS011;44258;51.288;12.068;2023-11-21T00:34:42;3.80;;;1.70;;
58470;SDS011;44258;51.288;12.068;2023-11-21T00:37:09;7.65;;;1.80;;
58470;SDS011;44258;51.288;12.068;2023-11-21T00:39:37;5.90;;;1.73;;
58470;SDS011;44258;51.288;12.068;2023-11-21T00:42:03;5.20;;;1.75;;
58470;SDS011;44258;51.288;12.068;2023-11-21T00:44:31;6.25;;;1.77;;
58470;SDS011;44258;51.288;12.068;2023-11-21T00:46:59;3.88;;;1.60;;
58470;SDS011;44258;51.288;12.068;2023-11-21T00:49:27;5.55;;;1.58;;
58470;SDS011;44258;51.288;12.068;2023-11-21T00:51:54;4.90;;;1.42;;
58470;SDS011;44258;51.288;12.068;2023-11-21T00:54:23;3.92;;;1.83;;
58470;SDS011;44258;51.288;12.068;2023-11-21T00:56:50;5.50;;;1.70;;
58470;SDS011;44258;51.288;12.068;2023-11-21T00:59:16;4.05;;;1.20;;
58470;SDS011;44258;51.288;12.068;2023-11-21T01:01:43;3.53;;;1.20;;
58470;SDS011;44258;51.288;12.068;2023-11-21T01:04:10;3.08;;;1.25;;
58470;SDS011;44258;51.288;12.068;2023-11-21T01:06:38;4.38;;;1.30;;
58470;SDS011;44258;51.288;12.068;2023-11-21T01:09:05;4.65;;;1.67;;
58470;SDS011;44258;51.288;12.068;2023-11-21T01:11:33;5.63;;;1.33;;
58470;SDS011;44258;51.288;12.068;2023-11-21T01:14:02;4.32;;;1.30;;
58470;SDS011;44258;51.288;12.068;2023-11-21T01:16:29;5.63;;;1.48;;
58470;SDS011;44258;51.288;12.068;2023-11-21T01:18:58;3.22;;;1.23;;
58470;SDS011;44258;51.288;12.068;2023-11-21T01:21:25;5.07;;;1.70;;
58470;SDS011;44258;51.288;12.068;2023-11-21T01:23:55;3.75;;;1.50;;
58470;SDS011;44258;51.288;12.068;2023-11-21T01:26:21;3.85;;;1.63;;
58470;SDS011;44258;51.288;12.068;2023-11-21T01:28:48;5.13;;;1.38;;
58470;SDS011;44258;51.288;12.068;2023-11-21T01:31:15;2.53;;;1.23;;
58470;SDS011;44258;51.288;12.068;2023-11-21T01:33:42;4.38;;;1.40;;
58470;SDS011;44258;51.288;12.068;2023-11-21T01:36:10;4.43;;;1.35;;
58470;SDS011;44258;51.288;12.068;2023-11-21T01:38:36;5.45;;;1.52;;
58470;SDS011;44258;51.288;12.068;2023-11-21T01:41:05;3.28;;;1.38;;
58470;SDS011;44258;51.288;12.068;2023-11-21T01:43:32;4.85;;;1.65;;
58470;SDS011;44258;51.288;12.068;2023-11-21T01:45:59;5.63;;;1.50;;
58470;SDS011;44258;51.288;12.068;2023-11-21T01:48:26;5.40;;;1.58;;
58470;SDS011;44258;51.288;12.068;2023-11-21T01:50:53;3.88;;;1.38;;
58470;SDS011;44258;51.288;12.068;2023-11-21T01:53:20;5.78;;;1.50;;
58470;SDS011;44258;51.288;12.068;2023-11-21T01:55:47;5.90;;;1.75;;
58470;SDS011;44258;51.288;12.068;2023-11-21T01:58:16;4.00;;;1.48;;
58470;SDS011;44258;51.288;12.068;2023-11-21T02:00:43;5.57;;;1.85;;
58470;SDS011;44258;51.288;12.068;2023-11-21T02:03:14;4.57;;;1.65;;
58470;SDS011;44258;51.288;12.068;2023-11-21T02:05:41;4.65;;;1.30;;
58470;SDS011;44258;51.288;12.068;2023-11-21T02:08:09;5.05;;;1.52;;
58470;SDS011;44258;51.288;12.068;2023-11-21T02:10:36;5.22;;;1.65;;
58470;SDS011;44258;51.288;12.068;2023-11-21T02:13:03;10.35;;;1.95;;
58470;SDS011;44258;51.288;12.068;2023-11-21T02:17:57;6.32;;;1.73;;
58470;SDS011;44258;51.288;12.068;2023-11-21T02:20:25;4.97;;;1.60;;
58470;SDS011;44258;51.288;12.068;2023-11-21T02:22:55;8.63;;;2.05;;
58470;SDS011;44258;51.288;12.068;2023-11-21T02:25:24;4.28;;;1.40;;
58470;SDS011;44258;51.288;12.068;2023-11-21T02:27:53;5.50;;;1.88;;
58470;SDS011;44258;51.288;12.068;2023-11-21T02:30:20;4.35;;;1.63;;
58470;SDS011;44258;51.288;12.068;2023-11-21T02:32:48;3.88;;;1.65;;
58470;SDS011;44258;51.288;12.068;2023-11-21T02:35:18;6.78;;;2.30;;
58470;SDS011;44258;51.288;12.068;2023-11-21T02:37:46;7.18;;;2.25;;
58470;SDS011;44258;51.288;12.068;2023-11-21T02:40:16;5.10;;;1.92;;
58470;SDS011;44258;51.288;12.068;2023-11-21T02:42:45;4.15;;;1.98;;
58470;SDS011;44258;51.288;12.068;2023-11-21T02:45:12;4.93;;;1.75;;
58470;SDS011;44258;51.288;12.068;2023-11-21T02:47:41;7.18;;;2.15;;
58470;SDS011;44258;51.288;12.068;2023-11-21T02:50:08;6.68;;;2.17;;
58470;SDS011;44258;51.288;12.068;2023-11-21T02:52:35;6.03;;;2.25;;
58470;SDS011;44258;51.288;12.068;2023-11-21T02:55:04;6.07;;;2.30;;
58470;SDS011;44258;51.288;12.068;2023-11-21T02:57:34;7.35;;;2.55;;
58470;SDS011;44258;51.288;12.068;2023-11-21T03:00:01;4.88;;;1.83;;
58470;SDS011;44258;51.288;12.068;2023-11-21T03:02:29;8.07;;;2.20;;
58470;SDS011;44258;51.288;12.068;2023-11-21T03:04:55;7.47;;;2.05;;
58470;SDS011;44258;51.288;12.068;2023-11-21T03:07:22;5.40;;;2.15;;
58470;SDS011;44258;51.288;12.068;2023-11-21T03:09:50;5.07;;;2.05;;
58470;SDS011;44258;51.288;12.068;2023-11-21T03:12:16;6.25;;;2.20;;
58470;SDS011;44258;51.288;12.068;2023-11-21T03:14:44;3.33;;;1.60;;
58470;SDS011;44258;51.288;12.068;2023-11-21T03:17:12;7.60;;;2.00;;
58470;SDS011;44258;51.288;12.068;2023-11-21T03:19:41;8.27;;;2.17;;
58470;SDS011;44258;51.288;12.068;2023-11-21T03:22:08;5.22;;;1.80;;
58470;SDS011;44258;51.288;12.068;2023-11-21T03:24:35;5.75;;;2.33;;
58470;SDS011;44258;51.288;12.068;2023-11-21T03:27:03;6.03;;;1.98;;
58470;SDS011;44258;51.288;12.068;2023-11-21T03:29:30;7.35;;;2.10;;
58470;SDS011;44258;51.288;12.068;2023-11-21T03:31:58;5.13;;;1.83;;
58470;SDS011;44258;51.288;12.068;2023-11-21T03:34:26;10.05;;;2.08;;
58470;SDS011;44258;51.288;12.068;2023-11-21T03:36:53;5.57;;;2.20;;
58470;SDS011;44258;51.288;12.068;2023-11-21T03:39:21;9.35;;;2.38;;
58470;SDS011;44258;51.288;12.068;2023-11-21T03:41:48;8.27;;;2.58;;
58470;SDS011;44258;51.288;12.068;2023-11-21T03:44:14;7.68;;;2.20;;
58470;SDS011;44258;51.288;12.068;2023-11-21T03:46:42;7.35;;;2.10;;
58470;SDS011;44258;51.288;12.068;2023-11-21T03:49:11;5.18;;;1.83;;
58470;SDS011;44258;51.288;12.068;2023-11-21T03:51:37;5.53;;;2.30;;
58470;SDS011;44258;51.288;12.068;2023-11-21T03:54:04;6.97;;;2.85;;
58470;SDS011;44258;51.288;12.068;2023-11-21T03:56:31;12.10;;;2.58;;
58470;SDS011;44258;51.288;12.068;2023-11-21T03:58:58;7.78;;;2.65;;
58470;SDS011;44258;51.288;12.068;2023-11-21T04:01:25;8.15;;;2.38;;
58470;SDS011;44258;51.288;12.068;2023-11-21T04:03:52;7.97;;;2.30;;
58470;SDS011;44258;51.288;12.068;2023-11-21T04:06:21;7.20;;;2.03;;
58470;SDS011;44258;51.288;12.068;2023-11-21T04:08:47;8.00;;;2.53;;
58470;SDS011;44258;51.288;12.068;2023-11-21T04:11:14;7.38;;;2.45;;
58470;SDS011;44258;51.288;12.068;2023-11-21T04:13:41;8.60;;;2.60;;
58470;SDS011;44258;51.288;12.068;2023-11-21T04:16:08;7.43;;;2.40;;
58470;SDS011;44258;51.288;12.068;2023-11-21T04:18:35;10.43;;;2.47;;
58470;SDS011;44258;51.288;12.068;2023-11-21T04:21:03;9.23;;;2.60;;
58470;SDS011;44258;51.288;12.068;2023-11-21T04:23:32;8.73;;;2.42;;
58470;SDS011;44258;51.288;12.068;2023-11-21T04:25:59;7.78;;;2.60;;
58470;SDS011;44258;51.288;12.068;2023-11-21T04:28:27;9.52;;;2.75;;
58470;SDS011;44258;51.288;12.068;2023-11-21T04:30:54;8.85;;;2.38;;
58470;SDS011;44258;51.288;12.068;2023-11-21T04:33:21;6.10;;;2.38;;
58470;SDS011;44258;51.288;12.068;2023-11-21T04:35:47;8.90;;;2.55;;
58470;SDS011;44258;51.288;12.068;2023-11-21T04:38:14;9.60;;;2.67;;
58470;SDS011;44258;51.288;12.068;2023-11-21T04:40:43;7.30;;;2.53;;
58470;SDS011;44258;51.288;12.068;2023-11-21T04:43:09;11.52;;;2.75;;
58470;SDS011;44258;51.288;12.068;2023-11-21T04:45:36;9.35;;;2.75;;
58470;SDS011;44258;51.288;12.068;2023-11-21T04:48:03;15.57;;;3.15;;
58470;SDS011;44258;51.288;12.068;2023-11-21T04:50:31;8.80;;;2.63;;
58470;SDS011;44258;51.288;12.068;2023-11-21T04:52:58;11.00;;;2.67;;
58470;SDS011;44258;51.288;12.068;2023-11-21T04:55:25;9.77;;;2.92;;
58470;SDS011;44258;51.288;12.068;2023-11-21T04:57:54;9.07;;;2.70;;
58470;SDS011;44258;51.288;12.068;2023-11-21T05:00:21;11.65;;;3.00;;
58470;SDS011;44258;51.288;12.068;2023-11-21T05:02:49;5.40;;;2.28;;
58470;SDS011;44258;51.288;12.068;2023-11-21T05:05:16;7.57;;;2.53;;
58470;SDS011;44258;51.288;12.068;2023-11-21T05:07:42;7.45;;;2.70;;
58470;SDS011;44258;51.288;12.068;2023-11-21T05:10:09;6.88;;;2.72;;
58470;SDS011;44258;51.288;12.068;2023-11-21T05:12:37;11.15;;;3.15;;
58470;SDS011;44258;51.288;12.068;2023-11-21T05:15:06;8.07;;;3.00;;
58470;SDS011;44258;51.288;12.068;2023-11-21T05:17:35;7.38;;;2.85;;
58470;SDS011;44258;51.288;12.068;2023-11-21T05:20:02;12.55;;;3.45;;
58470;SDS011;44258;51.288;12.068;2023-11-21T05:22:30;8.25;;;2.92;;
58470;SDS011;44258;51.288;12.068;2023-11-21T05:24:57;8.23;;;2.88;;
58470;SDS011;44258;51.288;12.068;2023-11-21T05:27:24;8.20;;;2.75;;
58470;SDS011;44258;51.288;12.068;2023-11-21T05:29:51;11.68;;;3.58;;
58470;SDS011;44258;51.288;12.068;2023-11-21T05:32:19;9.18;;;3.60;;
58470;SDS011;44258;51.288;12.068;2023-11-21T05:34:48;11.07;;;3.97;;
58470;SDS011;44258;51.288;12.068;2023-11-21T05:37:14;14.07;;;4.47;;
58470;SDS011;44258;51.288;12.068;2023-11-21T05:39:42;14.80;;;4.53;;
58470;SDS011;44258;51.288;12.068;2023-11-21T05:42:09;15.63;;;4.88;;
58470;SDS011;44258;51.288;12.068;2023-11-21T05:44:36;10.45;;;4.00;;
58470;SDS011;44258;51.288;12.068;2023-11-21T05:47:03;11.35;;;4.53;;
58470;SDS011;44258;51.288;12.068;2023-11-21T05:49:35;12.73;;;4.45;;
58470;SDS011;44258;51.288;12.068;2023-11-21T05:52:04;10.20;;;4.05;;
58470;SDS011;44258;51.288;12.068;2023-11-21T05:54:32;14.10;;;4.43;;
58470;SDS011;44258;51.288;12.068;2023-11-21T05:57:03;11.70;;;3.95;;
58470;SDS011;44258;51.288;12.068;2023-11-21T05:59:30;9.48;;;3.10;;
58470;SDS011;44258;51.288;12.068;2023-11-21T06:01:58;11.05;;;4.15;;
58470;SDS011;44258;51.288;12.068;2023-11-21T06:04:26;12.52;;;4.25;;
58470;SDS011;44258;51.288;12.068;2023-11-21T06:06:54;10.82;;;4.00;;
58470;SDS011;44258;51.288;12.068;2023-11-21T06:09:21;14.52;;;4.07;;
58470;SDS011;44258;51.288;12.068;2023-11-21T06:11:50;9.18;;;3.83;;
58470;SDS011;44258;51.288;12.068;2023-11-21T06:14:16;12.73;;;4.13;;
58470;SDS011;44258;51.288;12.068;2023-11-21T06:16:43;10.30;;;4.00;;
58470;SDS011;44258;51.288;12.068;2023-11-21T06:19:11;14.60;;;4.55;;
58470;SDS011;44258;51.288;12.068;2023-11-21T06:21:38;11.38;;;4.32;;
58470;SDS011;44258;51.288;12.068;2023-11-21T06:24:06;12.52;;;4.70;;
58470;SDS011;44258;51.288;12.068;2023-11-21T06:26:34;13.15;;;4.35;;
58470;SDS011;44258;51.288;12.068;2023-11-21T06:29:02;12.60;;;4.40;;
58470;SDS011;44258;51.288;12.068;2023-11-21T06:31:29;12.32;;;3.92;;
58470;SDS011;44258;51.288;12.068;2023-11-21T06:33:58;10.73;;;3.70;;
58470;SDS011;44258;51.288;12.068;2023-11-21T06:36:25;13.38;;;4.07;;
58470;SDS011;44258;51.288;12.068;2023-11-21T06:38:51;13.90;;;4.65;;
58470;SDS011;44258;51.288;12.068;2023-11-21T06:41:19;15.77;;;4.53;;
58470;SDS011;44258;51.288;12.068;2023-11-21T06:43:46;13.30;;;4.93;;
58470;SDS011;44258;51.288;12.068;2023-11-21T06:46:14;11.70;;;4.05;;
58470;SDS011;44258;51.288;12.068;2023-11-21T06:48:44;11.43;;;4.32;;
58470;SDS011;44258;51.288;12.068;2023-11-21T06:51:11;14.25;;;4.93;;
58470;SDS011;44258;51.288;12.068;2023-11-21T06:53:38;15.13;;;4.68;;
58470;SDS011;44258;51.288;12.068;2023-11-21T06:56:14;13.20;;;4.70;;
58470;SDS011;44258;51.288;12.068;2023-11-21T06:58:43;14.25;;;4.10;;
58470;SDS011;44258;51.288;12.068;2023-11-21T07:01:11;16.35;;;6.00;;
58470;SDS011;44258;51.288;12.068;2023-11-21T07:03:38;15.85;;;5.60;;
58470;SDS011;44258;51.288;12.068;2023-11-21T07:06:05;18.05;;;6.05;;
58470;SDS011;44258;51.288;12.068;2023-11-21T07:08:32;14.48;;;5.88;;
58470;SDS011;44258;51.288;12.068;2023-11-21T07:11:02;16.50;;;5.63;;
58470;SDS011;44258;51.288;12.068;2023-11-21T07:13:29;16.00;;;6.07;;
58470;SDS011;44258;51.288;12.068;2023-11-21T07:15:57;17.30;;;6.07;;
58470;SDS011;44258;51.288;12.068;2023-11-21T07:18:24;17.58;;;6.32;;
58470;SDS011;44258;51.288;12.068;2023-11-21T07:20:51;14.90;;;5.63;;
58470;SDS011;44258;51.288;12.068;2023-11-21T07:23:19;15.60;;;5.43;;
58470;SDS011;44258;51.288;12.068;2023-11-21T07:25:49;16.85;;;6.15;;
58470;SDS011;44258;51.288;12.068;2023-11-21T07:28:15;20.85;;;6.75;;
58470;SDS011;44258;51.288;12.068;2023-11-21T07:30:42;21.35;;;7.10;;
58470;SDS011;44258;51.288;12.068;2023-11-21T07:33:10;19.15;;;6.35;;
58470;SDS011;44258;51.288;12.068;2023-11-21T07:35:38;22.33;;;6.55;;
58470;SDS011;44258;51.288;12.068;2023-11-21T07:38:06;25.17;;;7.45;;
58470;SDS011;44258;51.288;12.068;2023-11-21T07:40:33;19.38;;;6.68;;
58470;SDS011;44258;51.288;12.068;2023-11-21T07:43:00;19.77;;;6.70;;
58470;SDS011;44258;51.288;12.068;2023-11-21T07:45:31;20.05;;;6.78;;
58470;SDS011;44258;51.288;12.068;2023-11-21T07:48:00;22.13;;;7.35;;
58470;SDS011;44258;51.288;12.068;2023-11-21T07:50:30;17.95;;;6.47;;
58470;SDS011;44258;51.288;12.068;2023-11-21T07:52:57;20.90;;;7.93;;
58470;SDS011;44258;51.288;12.068;2023-11-21T07:55:26;23.75;;;7.38;;
58470;SDS011;44258;51.288;12.068;2023-11-21T07:57:52;21.77;;;7.30;;
58470;SDS011;44258;51.288;12.068;2023-11-21T08:00:20;23.30;;;8.50;;
58470;SDS011;44258;51.288;12.068;2023-11-21T08:02:47;27.10;;;8.63;;
58470;SDS011;44258;51.288;12.068;2023-11-21T08:05:17;31.80;;;9.20;;
58470;SDS011;44258;51.288;12.068;2023-11-21T08:07:46;28.73;;;9.02;;
58470;SDS011;44258;51.288;12.068;2023-11-21T08:10:14;25.92;;;9.05;;
58470;SDS011;44258;51.288;12.068;2023-11-21T08:12:41;26.98;;;8.73;;
58470;SDS011;44258;51.288;12.068;2023-11-21T08:15:08;25.83;;;9.80;;
58470;SDS011;44258;51.288;12.068;2023-11-21T08:17:36;28.65;;;10.70;;
58470;SDS011;44258;51.288;12.068;2023-11-21T08:20:05;31.63;;;10.10;;
58470;SDS011;44258;51.288;12.068;2023-11-21T08:22:34;25.00;;;9.70;;
58470;SDS011;44258;51.288;12.068;2023-11-21T08:25:05;25.38;;;8.57;;
58470;SDS011;44258;51.288;12.068;2023-11-21T08:27:41;27.85;;;9.13;;
58470;SDS011;44258;51.288;12.068;2023-11-21T08:30:09;24.27;;;8.30;;
58470;SDS011;44258;51.288;12.068;2023-11-21T08:32:40;23.58;;;8.88;;
58470;SDS011;44258;51.288;12.068;2023-11-21T08:35:10;20.58;;;7.18;;
58470;SDS011;44258;51.288;12.068;2023-11-21T08:37:39;16.88;;;5.85;;
58470;SDS011;44258;51.288;12.068;2023-11-21T08:40:12;16.40;;;6.30;;
58470;SDS011;44258;51.288;12.068;2023-11-21T08:42:41;12.65;;;5.13;;
58470;SDS011;44258;51.288;12.068;2023-11-21T08:45:08;14.77;;;5.45;;
58470;SDS011;44258;51.288;12.068;2023-11-21T08:47:36;12.38;;;4.22;;
58470;SDS011;44258;51.288;12.068;2023-11-21T08:50:03;12.07;;;4.13;;
58470;SDS011;44258;51.288;12.068;2023-11-21T08:52:32;17.20;;;4.47;;
58470;SDS011;44258;51.288;12.068;2023-11-21T08:54:58;14.32;;;4.47;;
58470;SDS011;44258;51.288;12.068;2023-11-21T08:57:29;13.75;;;5.30;;
58470;SDS011;44258;51.288;12.068;2023-11-21T08:59:56;13.30;;;4.28;;
58470;SDS011;44258;51.288;12.068;2023-11-21T09:02:23;16.25;;;5.25;;
58470;SDS011;44258;51.288;12.068;2023-11-21T09:04:50;14.38;;;5.60;;
58470;SDS011;44258;51.288;12.068;2023-11-21T09:07:17;15.05;;;5.03;;
58470;SDS011;44258;51.288;12.068;2023-11-21T09:09:50;12.13;;;4.32;;
58470;SDS011;44258;51.288;12.068;2023-11-21T09:12:20;13.30;;;5.03;;
58470;SDS011;44258;51.288;12.068;2023-11-21T09:14:52;12.60;;;4.38;;
58470;SDS011;44258;51.288;12.068;2023-11-21T09:17:20;13.48;;;5.45;;
58470;SDS011;44258;51.288;12.068;2023-11-21T09:19:50;14.60;;;5.18;;
58470;SDS011;44258;51.288;12.068;2023-11-21T09:22:17;14.18;;;5.35;;
58470;SDS011;44258;51.288;12.068;2023-11-21T09:24:50;11.23;;;4.35;;
58470;SDS011;44258;51.288;12.068;2023-11-21T09:27:21;11.00;;;3.88;;
58470;SDS011;44258;51.288;12.068;2023-11-21T09:29:58;8.82;;;3.22;;
58470;SDS011;44258;51.288;12.068;2023-11-21T09:32:30;11.98;;;4.13;;
58470;SDS011;44258;51.288;12.068;2023-11-21T09:34:58;11.77;;;4.03;;
58470;SDS011;44258;51.288;12.068;2023-11-21T09:37:27;13.02;;;4.85;;
58470;SDS011;44258;51.288;12.068;2023-11-21T09:39:54;13.15;;;4.80;;
58470;SDS011;44258;51.288;12.068;2023-11-21T09:42:25;14.60;;;5.13;;
58470;SDS011;44258;51.288;12.068;2023-11-21T09:44:58;12.15;;;4.05;;
58470;SDS011;44258;51.288;12.068;2023-11-21T09:50:02;15.70;;;5.60;;
58470;SDS011;44258;51.288;12.068;2023-11-21T09:52:32;14.80;;;5.35;;
58470;SDS011;44258;51.288;12.068;2023-11-21T09:55:05;16.48;;;5.85;;
58470;SDS011;44258;51.288;12.068;2023-11-21T09:57:33;14.48;;;5.30;;
58470;SDS011;44258;51.288;12.068;2023-11-21T10:00:04;16.55;;;5.68;;
58470;SDS011;44258;51.288;12.068;2023-11-21T10:02:37;12.18;;;5.15;;
58470;SDS011;44258;51.288;12.068;2023-11-21T10:05:06;11.40;;;4.90;;
58470;SDS011;44258;51.288;12.068;2023-11-21T10:07:35;12.95;;;5.45;;
58470;SDS011;44258;51.288;12.068;2023-11-21T10:10:05;11.82;;;5.05;;
58470;SDS011;44258;51.288;12.068;2023-11-21T10:12:36;12.73;;;5.57;;
58470;SDS011;44258;51.288;12.068;2023-11-21T10:15:08;14.55;;;4.97;;
58470;SDS011;44258;51.288;12.068;2023-11-21T10:17:41;13.90;;;5.28;;
58470;SDS011;44258;51.288;12.068;2023-11-21T10:20:11;12.25;;;4.57;;
58470;SDS011;44258;51.288;12.068;2023-11-21T10:22:38;10.93;;;4.53;;
58470;SDS011;44258;51.288;12.068;2023-11-21T10:25:08;12.32;;;4.65;;
58470;SDS011;44258;51.288;12.068;2023-11-21T10:27:39;9.55;;;3.40;;
58470;SDS011;44258;51.288;12.068;2023-11-21T10:30:10;8.50;;;3.38;;
58470;SDS011;44258;51.288;12.068;2023-11-21T10:32:38;11.02;;;4.10;;
58470;SDS011;44258;51.288;12.068;2023-11-21T10:35:06;11.38;;;4.50;;
58470;SDS011;44258;51.288;12.068;2023-11-21T10:37:39;9.00;;;3.63;;
58470;SDS011;44258;51.288;12.068;2023-11-21T10:40:10;12.88;;;4.57;;
58470;SDS011;44258;51.288;12.068;2023-11-21T10:42:39;8.32;;;3.65;;
58470;SDS011;44258;51.288;12.068;2023-11-21T10:45:11;11.48;;;4.07;;
58470;SDS011;44258;51.288;12.068;2023-11-21T10:47:40;12.50;;;4.63;;
58470;SDS011;44258;51.288;12.068;2023-11-21T10:50:08;13.27;;;5.43;;
58470;SDS011;44258;51.288;12.068;2023-11-21T10:52:39;13.73;;;5.28;;
58470;SDS011;44258;51.288;12.068;2023-11-21T10:55:18;11.80;;;5.57;;
58470;SDS011;44258;51.288;12.068;2023-11-21T10:57:47;7.93;;;3.70;;
58470;SDS011;44258;51.288;12.068;2023-11-21T11:00:19;11.35;;;4.25;;
58470;SDS011;44258;51.288;12.068;2023-11-21T11:02:51;11.40;;;4.43;;
58470;SDS011;44258;51.288;12.068;2023-11-21T11:05:20;15.75;;;4.57;;
58470;SDS011;44258;51.288;12.068;2023-11-21T11:07:50;12.48;;;4.75;;
58470;SDS011;44258;51.288;12.068;2023-11-21T11:10:20;13.38;;;6.03;;
58470;SDS011;44258;51.288;12.068;2023-11-21T11:12:48;11.85;;;4.75;;
58470;SDS011;44258;51.288;12.068;2023-11-21T11:15:19;15.50;;;6.28;;
58470;SDS011;44258;51.288;12.068;2023-11-21T11:17:46;18.95;;;6.60;;
58470;SDS011;44258;51.288;12.068;2023-11-21T11:20:16;28.13;;;10.05;;
58470;SDS011;44258;51.288;12.068;2023-11-21T11:22:50;15.07;;;6.43;;
58470;SDS011;44258;51.288;12.068;2023-11-21T11:25:35;17.75;;;5.75;;
58470;SDS011;44258;51.288;12.068;2023-11-21T11:28:21;14.18;;;5.03;;
58470;SDS011;44258;51.288;12.068;2023-11-21T11:31:05;13.05;;;5.40;;
58470;SDS011;44258;51.288;12.068;2023-11-21T11:33:43;14.60;;;5.60;;
58470;SDS011;44258;51.288;12.068;2023-11-21T11:36:22;16.08;;;5.43;;
58470;SDS011;44258;51.288;12.068;2023-11-21T11:38:54;10.68;;;4.25;;
58470;SDS011;44258;51.288;12.068;2023-11-21T11:41:25;17.42;;;5.97;;
58470;SDS011;44258;51.288;12.068;2023-11-21T11:43:58;14.32;;;5.35;;
58470;SDS011;44258;51.288;12.068;2023-11-21T11:46:40;13.20;;;5.97;;
58470;SDS011;44258;51.288;12.068;2023-11-21T11:49:08;13.65;;;5.00;;
58470;SDS011;44258;51.288;12.068;2023-11-21T11:51:36;17.25;;;6.65;;
58470;SDS011;44258;51.288;12.068;2023-11-21T11:54:03;15.52;;;5.63;;
58470;SDS011;44258;51.288;12.068;2023-11-21T11:56:33;15.82;;;6.15;;
58470;SDS011;44258;51.288;12.068;2023-11-21T11:59:02;17.60;;;6.18;;
58470;SDS011;44258;51.288;12.068;2023-11-21T12:01:30;15.85;;;6.22;;
58470;SDS011;44258;51.288;12.068;2023-11-21T12:07:00;14.95;;;5.50;;
58470;SDS011;44258;51.288;12.068;2023-11-21T12:09:30;18.15;;;6.57;;
58470;SDS011;44258;51.288;12.068;2023-11-21T12:12:00;15.00;;;6.35;;
58470;SDS011;44258;51.288;12.068;2023-11-21T12:14:29;14.50;;;5.78;;
58470;SDS011;44258;51.288;12.068;2023-11-21T12:16:59;18.05;;;6.68;;
58470;SDS011;44258;51.288;12.068;2023-11-21T12:19:32;18.38;;;6.95;;
58470;SDS011;44258;51.288;12.068;2023-11-21T12:22:02;15.40;;;4.95;;
58470;SDS011;44258;51.288;12.068;2023-11-21T12:24:29;20.83;;;7.63;;
58470;SDS011;44258;51.288;12.068;2023-11-21T12:26:56;16.88;;;6.90;;
58470;SDS011;44258;51.288;12.068;2023-11-21T12:29:23;16.67;;;6.63;;
58470;SDS011;44258;51.288;12.068;2023-11-21T12:31:50;19.55;;;7.22;;
58470;SDS011;44258;51.288;12.068;2023-11-21T12:34:18;18.95;;;7.53;;
58470;SDS011;44258;51.288;12.068;2023-11-21T12:36:48;19.88;;;7.95;;
58470;SDS011;44258;51.288;12.068;2023-11-21T12:39:15;16.00;;;6.20;;
58470;SDS011;44258;51.288;12.068;2023-11-21T12:41:42;18.55;;;6.00;;
58470;SDS011;44258;51.288;12.068;2023-11-21T12:44:11;16.30;;;7.05;;
58470;SDS011;44258;51.288;12.068;2023-11-21T12:46:42;10.45;;;4.40;;
58470;SDS011;44258;51.288;12.068;2023-11-21T12:49:10;14.38;;;5.68;;
58470;SDS011;44258;51.288;12.068;2023-11-21T12:51:42;12.55;;;4.97;;
58470;SDS011;44258;51.288;12.068;2023-11-21T12:54:12;17.38;;;6.07;;
58470;SDS011;44258;51.288;12.068;2023-11-21T12:56:40;17.25;;;7.70;;
58470;SDS011;44258;51.288;12.068;2023-11-21T12:59:10;16.20;;;6.57;;
58470;SDS011;44258;51.288;12.068;2023-11-21T13:01:41;14.38;;;5.50;;
58470;SDS011;44258;51.288;12.068;2023-11-21T13:04:09;18.23;;;6.50;;
58470;SDS011;44258;51.288;12.068;2023-11-21T13:06:41;11.68;;;5.28;;
58470;SDS011;44258;51.288;12.068;2023-11-21T13:09:08;13.02;;;4.68;;
58470;SDS011;44258;51.288;12.068;2023-11-21T13:11:37;21.42;;;7.97;;
58470;SDS011;44258;51.288;12.068;2023-11-21T13:14:06;19.80;;;8.13;;
58470;SDS011;44258;51.288;12.068;2023-11-21T13:16:33;18.25;;;7.63;;
58470;SDS011;44258;51.288;12.068;2023-11-21T13:19:04;14.35;;;5.63;;
58470;SDS011;44258;51.288;12.068;2023-11-21T13:21:31;17.90;;;6.25;;
58470;SDS011;44258;51.288;12.068;2023-11-21T13:23:58;19.33;;;6.85;;
58470;SDS011;44258;51.288;12.068;2023-11-21T13:26:26;12.30;;;5.63;;
58470;SDS011;44258;51.288;12.068;2023-11-21T13:28:54;19.27;;;6.63;;
58470;SDS011;44258;51.288;12.068;2023-11-21T13:31:21;17.45;;;6.47;;
58470;SDS011;44258;51.288;12.068;2023-11-21T13:33:52;11.68;;;4.68;;
58470;SDS011;44258;51.288;12.068;2023-11-21T13:36:24;17.73;;;6.78;;
58470;SDS011;44258;51.288;12.068;2023-11-21T13:38:56;15.60;;;5.38;;
58470;SDS011;44258;51.288;12.068;2023-11-21T13:41:23;17.40;;;6.47;;
58470;SDS011;44258;51.288;12.068;2023-11-21T13:43:57;12.65;;;5.18;;
58470;SDS011;44258;51.288;12.068;2023-11-21T13:46:32;16.25;;;6.75;;
58470;SDS011;44258;51.288;12.068;2023-11-21T13:49:02;13.20;;;4.72;;
58470;SDS011;44258;51.288;12.068;2023-11-21T13:51:31;9.73;;;3.72;;
58470;SDS011;44258;51.288;12.068;2023-11-21T13:54:05;14.43;;;5.38;;
58470;SDS011;44258;51.288;12.068;2023-11-21T13:56:35;7.82;;;3.28;;
58470;SDS011;44258;51.288;12.068;2023-11-21T13:59:03;13.35;;;4.40;;
58470;SDS011;44258;51.288;12.068;2023-11-21T14:04:21;13.18;;;4.82;;
58470;SDS011;44258;51.288;12.068;2023-11-21T14:07:00;10.57;;;4.15;;
58470;SDS011;44258;51.288;12.068;2023-11-21T14:09:44;10.88;;;4.07;;
58470;SDS011;44258;51.288;12.068;2023-11-21T14:12:11;10.10;;;4.20;;
58470;SDS011;44258;51.288;12.068;2023-11-21T14:14:41;11.25;;;4.38;;
58470;SDS011;44258;51.288;12.068;2023-11-21T14:17:09;9.68;;;3.90;;
58470;SDS011;44258;51.288;12.068;2023-11-21T14:19:35;10.50;;;4.25;;
58470;SDS011;44258;51.288;12.068;2023-11-21T14:22:05;8.00;;;3.45;;
58470;SDS011;44258;51.288;12.068;2023-11-21T14:24:32;12.23;;;4.40;;
58470;SDS011;44258;51.288;12.068;2023-11-21T14:27:00;9.52;;;3.92;;
58470;SDS011;44258;51.288;12.068;2023-11-21T14:29:28;9.45;;;4.07;;
58470;SDS011;44258;51.288;12.068;2023-11-21T14:32:01;11.95;;;4.03;;
58470;SDS011;44258;51.288;12.068;2023-11-21T14:34:29;11.50;;;4.25;;
58470;SDS011;44258;51.288;12.068;2023-11-21T14:36:56;12.27;;;4.88;;
58470;SDS011;44258;51.288;12.068;2023-11-21T14:39:26;12.43;;;4.50;;
58470;SDS011;44258;51.288;12.068;2023-11-21T14:41:53;5.70;;;2.30;;
58470;SDS011;44258;51.288;12.068;2023-11-21T14:44:21;11.10;;;4.00;;